Time;durP1;ratioP1;P1;durP2;ratioP2;P2;SDS_P1;SDS_P2;PMS_P1;PMS_P2;Temp;Humidity;BMP_temperature;BMP_pressure;BME280_temperature;BME280_humidity;BME280_pressure;Samples;Min_cycle;Max_cycle;Signal;HPM_P1;HPM_P2
2023/10/22 00:01:26;;;;;;;3.53;1.90;;;17.40;64.50;18.50;99212.00;;;;5069354;28;20675;-46
2023/10/22 00:03:52;;;;;;;2.80;1.60;;;17.40;63.30;18.50;99219.00;;;;5069510;28;20192;-47
2023/10/22 00:06:18;;;;;;;2.83;1.90;;;17.40;64.80;18.50;99220.00;;;;5069654;28;20219;-48
2023/10/22 00:08:43;;;;;;;2.73;2.00;;;17.40;64.30;18.50;99211.00;;;;5071588;28;20228;-47
2023/10/22 00:11:09;;;;;;;2.13;1.80;;;17.30;63.80;18.50;99213.00;;;;5073447;28;20204;-47
2023/10/22 00:13:35;;;;;;;4.23;1.87;;;17.30;65.20;18.50;99225.00;;;;5073103;28;20212;-48
2023/10/22 00:16:00;;;;;;;3.13;2.03;;;17.20;64.10;18.50;99228.00;;;;5069682;28;20555;-48
2023/10/22 00:18:26;;;;;;;2.53;1.97;;;17.30;65.00;18.50;99229.00;;;;5058317;28;20170;-47
2023/10/22 00:20:52;;;;;;;3.73;2.47;;;17.40;64.50;18.50;99219.00;;;;5052632;28;20532;-48
2023/10/22 00:23:17;;;;;;;3.17;1.80;;;17.40;65.00;18.50;99224.00;;;;5069269;28;20224;-47
2023/10/22 00:25:43;;;;;;;3.40;2.07;;;17.40;64.10;18.50;99227.00;;;;5069053;28;20181;-48
2023/10/22 00:28:09;;;;;;;2.67;1.80;;;17.40;64.50;18.50;99227.00;;;;5069150;28;20182;-47
2023/10/22 00:30:36;;;;;;;2.33;1.80;;;17.50;64.20;18.50;99231.00;;;;5069063;28;20180;-47
2023/10/22 00:33:02;;;;;;;3.50;1.83;;;17.40;64.30;18.40;99238.00;;;;5069042;28;20197;-48
2023/10/22 00:35:27;;;;;;;2.97;2.07;;;17.20;64.40;18.50;99232.00;;;;5070919;28;20230;-48
2023/10/22 00:37:53;;;;;;;3.23;2.00;;;17.30;63.80;18.40;99237.00;;;;5070401;28;20197;-47
2023/10/22 00:40:19;;;;;;;2.20;1.60;;;17.20;63.80;18.40;99228.00;;;;5069317;28;20185;-46
2023/10/22 00:42:45;;;;;;;2.33;1.70;;;17.20;64.60;18.40;99230.00;;;;5069331;28;20265;-47
2023/10/22 00:45:10;;;;;;;3.40;2.00;;;17.20;64.30;18.40;99238.00;;;;5068955;28;20619;-47
2023/10/22 00:47:36;;;;;;;3.17;2.00;;;17.20;64.60;18.40;99232.00;;;;5069262;28;20181;-47
2023/10/22 00:50:03;;;;;;;2.97;1.80;;;17.40;64.90;18.40;99240.00;;;;5068263;28;20196;-48
2023/10/22 00:52:28;;;;;;;3.77;1.87;;;17.20;64.20;18.40;99241.00;;;;5068816;28;20194;-48
2023/10/22 00:54:54;;;;;;;2.53;1.70;;;17.10;64.30;18.40;99226.00;;;;5067286;28;20254;-48
2023/10/22 00:57:20;;;;;;;3.37;1.70;;;17.20;65.00;18.30;99239.00;;;;5067211;28;20190;-48
2023/10/22 00:59:46;;;;;;;2.37;1.50;;;17.10;64.50;18.30;99244.00;;;;5066949;28;20182;-47
2023/10/22 01:02:12;;;;;;;3.13;1.90;;;17.20;64.90;18.40;99246.00;;;;5066935;28;20224;-47
2023/10/22 01:04:37;;;;;;;3.27;1.70;;;17.20;64.80;18.40;99239.00;;;;5068236;28;20189;-48
2023/10/22 01:07:05;;;;;;;3.90;2.10;;;17.20;64.60;18.30;99246.00;;;;5068289;28;20174;-48
2023/10/22 01:09:30;;;;;;;4.53;1.90;;;17.10;64.20;18.30;99247.00;;;;5066819;28;20204;-48
2023/10/22 01:12:04;;;;;;;3.07;1.70;;;17.10;64.10;18.30;99245.00;;;;5049307;28;20214;-48
2023/10/22 01:14:30;;;;;;;3.10;1.80;;;17.10;64.90;18.30;99246.00;;;;5047477;28;20206;-47
2023/10/22 01:16:56;;;;;;;3.83;1.93;;;17.10;65.10;18.20;99263.00;;;;5048346;28;20200;-48
2023/10/22 01:19:22;;;;;;;3.70;2.00;;;16.90;65.60;18.20;99261.00;;;;5048236;28;20185;-48
2023/10/22 01:21:48;;;;;;;2.63;1.80;;;16.80;64.80;18.20;99262.00;;;;5048117;28;20206;-47
2023/10/22 01:24:14;;;;;;;2.70;1.70;;;16.90;65.80;18.20;99270.00;;;;5046946;28;20605;-48
2023/10/22 01:26:43;;;;;;;2.50;1.73;;;16.90;65.30;18.10;99270.00;;;;5047776;28;20201;-48
2023/10/22 01:29:10;;;;;;;3.17;1.77;;;16.90;65.80;18.20;99273.00;;;;5047588;28;20181;-48
2023/10/22 01:31:36;;;;;;;3.43;1.80;;;17.10;66.10;18.20;99278.00;;;;5047844;28;20787;-47
2023/10/22 01:34:02;;;;;;;3.40;2.00;;;17.00;64.80;18.20;99275.00;;;;5067769;28;20197;-48
2023/10/22 01:36:28;;;;;;;2.73;1.70;;;16.90;65.60;18.20;99284.00;;;;5068047;28;20173;-47
2023/10/22 01:38:54;;;;;;;2.37;1.60;;;17.10;65.40;18.20;99286.00;;;;5067798;28;20177;-49
2023/10/22 01:41:20;;;;;;;2.93;1.87;;;17.00;65.20;18.10;99284.00;;;;5066259;28;20251;-47
2023/10/22 01:43:45;;;;;;;2.37;1.60;;;16.90;65.60;18.10;99289.00;;;;5067985;28;20178;-48
2023/10/22 01:46:11;;;;;;;2.17;1.70;;;16.80;66.00;18.10;99298.00;;;;5067754;28;20220;-47
2023/10/22 01:48:38;;;;;;;2.50;1.50;;;16.70;66.50;18.00;99296.00;;;;5067757;28;20184;-47
2023/10/22 01:51:04;;;;;;;2.23;1.50;;;16.70;66.60;18.00;99297.00;;;;5066274;28;20193;-48
2023/10/22 01:53:30;;;;;;;2.67;1.70;;;16.80;66.40;18.00;99296.00;;;;5063272;28;20208;-47
2023/10/22 01:55:56;;;;;;;2.60;1.40;;;16.80;66.50;18.00;99295.00;;;;5066312;28;20177;-51
2023/10/22 01:58:21;;;;;;;2.93;1.60;;;16.90;67.00;18.00;99306.00;;;;5067294;28;20265;-48
2023/10/22 02:00:48;;;;;;;3.57;1.80;;;16.80;66.50;18.00;99298.00;;;;5067373;28;20645;-49
2023/10/22 02:03:15;;;;;;;1.73;1.50;;;16.80;66.20;18.00;99309.00;;;;5067608;28;20594;-47
2023/10/22 02:05:40;;;;;;;1.97;1.27;;;16.90;67.20;18.00;99315.00;;;;5067346;28;20230;-47
2023/10/22 02:08:06;;;;;;;2.27;1.47;;;16.90;66.10;18.00;99308.00;;;;5067484;28;20173;-47
2023/10/22 02:10:33;;;;;;;1.93;1.57;;;16.90;67.00;18.00;99321.00;;;;5067454;28;20177;-48
2023/10/22 02:12:59;;;;;;;2.90;1.50;;;16.90;66.70;18.00;99330.00;;;;5067532;28;20293;-48
2023/10/22 02:15:26;;;;;;;3.03;1.53;;;17.10;67.10;18.10;99325.00;;;;5067832;28;20198;-48
2023/10/22 02:17:52;;;;;;;3.00;1.70;;;16.90;66.60;18.00;99322.00;;;;5066271;28;20682;-47
2023/10/22 02:20:18;;;;;;;2.87;1.63;;;16.80;66.70;18.00;99329.00;;;;5067532;28;20189;-47
2023/10/22 02:22:44;;;;;;;2.60;1.60;;;16.90;66.80;18.00;99318.00;;;;5059292;28;20564;-47
2023/10/22 02:25:09;;;;;;;2.20;1.50;;;16.80;67.10;18.00;99300.00;;;;5071424;28;20431;-47
2023/10/22 02:27:35;;;;;;;3.43;1.50;;;16.80;67.00;18.00;99329.00;;;;5067684;28;20198;-48
2023/10/22 02:30:01;;;;;;;1.97;1.50;;;16.90;67.30;18.00;99331.00;;;;5062345;28;20240;-47
2023/10/22 02:32:27;;;;;;;2.30;1.60;;;16.90;67.30;18.00;99327.00;;;;5072586;28;20200;-48
2023/10/22 02:34:52;;;;;;;2.53;1.73;;;16.90;67.40;18.00;99333.00;;;;5071265;28;20350;-50
2023/10/22 02:37:19;;;;;;;2.57;1.63;;;17.00;67.10;18.00;99330.00;;;;5071631;28;20185;-47
2023/10/22 02:39:45;;;;;;;3.03;1.60;;;16.90;67.10;18.00;99326.00;;;;5071235;28;20222;-47
2023/10/22 02:42:11;;;;;;;1.97;1.47;;;16.90;67.20;18.00;99323.00;;;;5072119;28;20201;-48
2023/10/22 02:44:37;;;;;;;3.77;1.70;;;16.80;67.30;18.00;99334.00;;;;5075349;28;20203;-48
2023/10/22 02:47:03;;;;;;;3.57;1.57;;;16.80;67.80;18.00;99342.00;;;;5071098;28;20240;-47
2023/10/22 02:49:30;;;;;;;2.43;1.37;;;16.80;67.70;18.00;99343.00;;;;5070979;28;20339;-47
2023/10/22 02:51:55;;;;;;;2.83;1.40;;;16.90;68.00;18.00;99347.00;;;;5071098;28;20281;-47
2023/10/22 02:54:21;;;;;;;2.20;1.50;;;16.90;67.40;18.00;99353.00;;;;5069992;28;20287;-47
2023/10/22 02:56:47;;;;;;;2.53;1.43;;;16.90;67.70;17.90;99363.00;;;;5071224;28;20181;-47
2023/10/22 02:59:13;;;;;;;3.37;1.70;;;16.70;68.00;17.90;99353.00;;;;5071069;28;20184;-47
2023/10/22 03:01:39;;;;;;;1.70;1.40;;;16.70;68.50;17.90;99372.00;;;;5071486;28;20215;-48
2023/10/22 03:04:04;;;;;;;2.30;1.60;;;16.60;68.70;17.90;99363.00;;;;5072070;28;20184;-47
2023/10/22 03:06:30;;;;;;;1.83;1.50;;;16.60;68.70;17.90;99369.00;;;;5065195;28;20181;-48
2023/10/22 03:08:56;;;;;;;2.13;1.60;;;16.70;68.60;17.90;99370.00;;;;5071983;28;20185;-48
2023/10/22 03:11:21;;;;;;;2.10;1.60;;;16.80;68.60;17.90;99366.00;;;;5066187;28;20231;-48
2023/10/22 03:13:50;;;;;;;2.73;1.67;;;16.80;68.70;17.90;99371.00;;;;5052898;28;20213;-49
2023/10/22 03:16:16;;;;;;;2.73;1.73;;;16.80;68.60;17.90;99378.00;;;;5056168;28;20167;-48
2023/10/22 03:18:44;;;;;;;1.47;1.30;;;16.90;68.50;17.90;99379.00;;;;5053979;28;20683;-48
2023/10/22 03:21:18;;;;;;;2.37;1.60;;;16.90;68.30;17.90;99384.00;;;;5071532;28;20173;-48
2023/10/22 03:23:44;;;;;;;2.77;1.67;;;16.80;68.20;17.90;99387.00;;;;5071784;28;20180;-48
2023/10/22 03:26:15;;;;;;;2.53;1.60;;;16.90;68.50;17.90;99395.00;;;;5071635;28;20184;-48
2023/10/22 03:28:45;;;;;;;3.37;1.60;;;16.80;68.60;17.90;99392.00;;;;5071687;28;20196;-48
2023/10/22 03:31:11;;;;;;;2.60;1.40;;;16.50;69.00;17.80;99401.00;;;;5071171;28;20180;-48
2023/10/22 03:33:36;;;;;;;4.50;1.80;;;16.20;70.20;17.70;99392.00;;;;5070015;28;20300;-48
2023/10/22 03:36:04;;;;;;;3.47;1.73;;;15.90;71.40;17.60;99403.00;;;;5070229;28;20205;-49
2023/10/22 03:38:30;;;;;;;2.60;1.77;;;15.80;71.90;17.50;99394.00;;;;5068467;28;20193;-47
2023/10/22 03:40:59;;;;;;;2.37;1.70;;;15.80;72.30;17.40;99401.00;;;;5053611;28;20667;-48
2023/10/22 03:43:28;;;;;;;2.13;1.80;;;15.70;72.40;17.30;99405.00;;;;5066518;28;20179;-48
2023/10/22 03:45:57;;;;;;;2.97;1.80;;;15.60;72.90;17.20;99413.00;;;;5068613;28;20225;-48
2023/10/22 03:48:23;;;;;;;2.63;1.47;;;15.60;73.10;17.20;99411.00;;;;5049833;28;20169;-48
2023/10/22 03:50:49;;;;;;;2.60;1.50;;;15.60;72.80;17.10;99420.00;;;;5060343;28;20240;-48
2023/10/22 03:53:15;;;;;;;3.63;1.70;;;15.60;72.90;17.10;99422.00;;;;5073533;28;20196;-48
2023/10/22 03:55:41;;;;;;;2.90;1.70;;;15.70;73.10;17.10;99419.00;;;;5074169;28;20210;-48
2023/10/22 03:58:06;;;;;;;4.07;1.70;;;15.80;72.50;17.10;99426.00;;;;5070807;28;20170;-48
2023/10/22 04:00:32;;;;;;;3.03;1.63;;;15.70;72.70;17.10;99429.00;;;;5070789;28;20178;-48
2023/10/22 04:02:59;;;;;;;2.83;1.60;;;15.80;72.90;17.00;99434.00;;;;5070964;28;20196;-48
2023/10/22 04:05:25;;;;;;;1.83;1.40;;;15.70;72.90;16.80;99441.00;;;;5070628;28;20232;-48
2023/10/22 04:07:50;;;;;;;1.93;1.50;;;15.70;72.80;17.00;99429.00;;;;5069368;28;20186;-48
2023/10/22 04:10:16;;;;;;;3.07;1.60;;;15.60;72.90;16.90;99441.00;;;;5068918;28;20186;-48
2023/10/22 04:12:42;;;;;;;2.07;1.30;;;15.40;74.20;16.80;99450.00;;;;5069937;28;20195;-48
2023/10/22 04:15:08;;;;;;;2.23;1.50;;;15.30;74.20;16.80;99440.00;;;;5070481;28;20208;-47
2023/10/22 04:17:34;;;;;;;1.63;1.33;;;15.40;74.70;16.80;99454.00;;;;5070360;28;20228;-47
2023/10/22 04:20:00;;;;;;;2.50;1.43;;;15.30;74.60;16.70;99463.00;;;;5070193;28;20178;-48
2023/10/22 04:22:26;;;;;;;3.23;1.63;;;15.30;74.70;16.70;99468.00;;;;5071234;28;20209;-48
2023/10/22 04:24:52;;;;;;;1.97;1.30;;;15.30;74.70;16.70;99469.00;;;;5075033;28;20185;-50
2023/10/22 04:27:18;;;;;;;1.50;1.27;;;15.30;75.00;16.70;99462.00;;;;5070206;28;20687;-48
2023/10/22 04:29:46;;;;;;;2.17;1.40;;;15.40;74.70;16.70;99469.00;;;;5068943;28;20193;-47
2023/10/22 04:32:16;;;;;;;1.10;1.00;;;15.20;75.20;16.70;99471.00;;;;5070510;28;20232;-48
2023/10/22 04:34:42;;;;;;;2.17;1.50;;;15.40;75.00;16.70;99478.00;;;;5070487;28;20301;-47
2023/10/22 04:37:09;;;;;;;1.37;1.10;;;15.40;74.70;16.70;99477.00;;;;5074707;28;20246;-47
2023/10/22 04:39:36;;;;;;;1.77;0.90;;;15.30;74.90;16.70;99479.00;;;;5070990;28;20184;-48
2023/10/22 04:42:02;;;;;;;0.97;0.83;;;15.30;74.90;16.70;99480.00;;;;5067351;28;20198;-47
2023/10/22 04:44:28;;;;;;;1.57;1.10;;;15.50;74.80;16.70;99482.00;;;;5070019;28;20395;-48
2023/10/22 04:46:53;;;;;;;1.17;1.10;;;15.30;74.90;16.70;99492.00;;;;5068924;28;20191;-47
2023/10/22 04:49:19;;;;;;;0.93;0.87;;;15.40;75.10;16.70;99488.00;;;;5069498;28;20185;-48
2023/10/22 04:51:45;;;;;;;1.90;0.93;;;15.30;75.20;16.60;99507.00;;;;5069510;28;20197;-48
2023/10/22 04:54:11;;;;;;;1.17;1.07;;;15.20;75.80;16.60;99510.00;;;;5069562;28;20212;-47
2023/10/22 04:56:36;;;;;;;0.83;0.80;;;15.30;76.00;16.60;99519.00;;;;5067654;28;20672;-48
2023/10/22 04:59:02;;;;;;;0.93;0.93;;;15.20;76.50;16.60;99511.00;;;;5069426;28;20175;-48
2023/10/22 05:01:28;;;;;;;0.70;0.70;;;15.40;75.90;16.60;99518.00;;;;5069658;28;20730;-48
2023/10/22 05:03:54;;;;;;;1.93;1.10;;;15.10;76.10;16.60;99518.00;;;;5069358;28;20195;-47
2023/10/22 05:06:20;;;;;;;1.33;1.23;;;15.30;76.20;16.60;99520.00;;;;5069893;28;20261;-47
2023/10/22 05:08:45;;;;;;;1.20;0.83;;;15.30;75.90;16.60;99522.00;;;;5061449;28;20189;-48
2023/10/22 05:11:15;;;;;;;1.40;1.10;;;15.30;76.00;16.60;99516.00;;;;5068986;28;20177;-48
2023/10/22 05:13:41;;;;;;;1.83;0.90;;;15.50;75.60;16.60;99519.00;;;;5069191;28;20198;-48
2023/10/22 05:16:07;;;;;;;1.40;1.10;;;15.50;75.40;16.70;99533.00;;;;5069396;28;20607;-48
2023/10/22 05:18:33;;;;;;;1.70;1.20;;;15.50;75.70;16.70;99529.00;;;;5068957;28;20294;-47
2023/10/22 05:21:04;;;;;;;0.83;0.73;;;15.30;75.90;16.70;99535.00;;;;5068819;28;20178;-47
2023/10/22 05:23:30;;;;;;;1.33;1.13;;;15.50;75.70;16.70;99537.00;;;;5068782;28;20204;-47
2023/10/22 05:26:11;;;;;;;1.00;0.90;;;15.60;74.80;16.70;99539.00;;;;5068607;28;20181;-47
2023/10/22 05:28:37;;;;;;;0.70;0.70;;;15.70;75.00;16.70;99543.00;;;;5068827;28;20170;-46
2023/10/22 05:31:18;;;;;;;0.93;0.93;;;15.50;75.10;16.70;99545.00;;;;5068680;28;20590;-48
2023/10/22 05:33:44;;;;;;;1.13;1.03;;;15.50;75.50;16.70;99547.00;;;;5067941;28;20222;-46
2023/10/22 05:36:28;;;;;;;0.80;0.80;;;15.50;75.60;16.70;99548.00;;;;5068880;28;20284;-47
2023/10/22 05:38:53;;;;;;;1.40;1.13;;;15.50;75.80;16.70;99560.00;;;;5068904;28;20173;-47
2023/10/22 05:41:21;;;;;;;0.80;0.80;;;15.30;75.80;16.70;99556.00;;;;5068815;28;20765;-48
2023/10/22 05:43:48;;;;;;;1.00;0.90;;;15.40;75.90;16.70;99561.00;;;;5068872;28;20246;-47
2023/10/22 05:46:13;;;;;;;1.40;1.10;;;15.40;75.60;16.70;99572.00;;;;5068498;28;20193;-47
2023/10/22 05:48:39;;;;;;;1.13;0.80;;;15.30;76.30;16.70;99582.00;;;;5068487;28;20178;-47
2023/10/22 05:51:05;;;;;;;1.20;1.10;;;15.40;76.30;16.60;99611.00;;;;5068538;28;20251;-48
2023/10/22 05:53:31;;;;;;;1.13;0.90;;;15.20;77.50;16.60;99621.00;;;;5068543;28;20263;-47
2023/10/22 05:55:57;;;;;;;1.07;0.80;;;15.20;78.30;16.60;99620.00;;;;5068900;28;20242;-48
2023/10/22 05:58:26;;;;;;;0.77;0.77;;;15.40;77.60;16.50;99641.00;;;;5067606;28;20710;-48
2023/10/22 06:00:52;;;;;;;1.10;1.00;;;14.90;78.80;16.30;99636.00;;;;5068297;28;20908;-48
2023/10/22 06:03:18;;;;;;;1.10;0.57;;;14.30;82.60;16.20;99640.00;;;;5067225;28;20204;-48
2023/10/22 06:05:45;;;;;;;1.20;0.87;;;14.20;83.90;16.00;99654.00;;;;5068650;28;20778;-48
2023/10/22 06:08:10;;;;;;;0.67;0.67;;;14.30;83.50;16.00;99641.00;;;;5068196;28;20588;-48
2023/10/22 06:10:43;;;;;;;1.10;1.00;;;14.30;81.50;15.90;99645.00;;;;5068479;28;20172;-48
2023/10/22 06:13:09;;;;;;;0.80;0.80;;;14.10;80.50;15.80;99652.00;;;;5068106;28;20193;-48
2023/10/22 06:15:36;;;;;;;1.13;1.07;;;14.20;81.40;15.80;99648.00;;;;5068490;28;20209;-48
2023/10/22 06:18:03;;;;;;;1.10;1.00;;;14.40;81.50;15.80;99654.00;;;;5070539;28;20191;-48
2023/10/22 06:20:35;;;;;;;1.57;1.10;;;14.30;81.30;15.70;99655.00;;;;5069014;28;20181;-48
2023/10/22 06:23:02;;;;;;;1.90;1.20;;;14.00;80.80;15.60;99660.00;;;;5068198;28;20197;-49
2023/10/22 06:25:28;;;;;;;2.40;1.10;;;13.90;81.20;15.50;99662.00;;;;5068186;28;20178;-47
2023/10/22 06:27:55;;;;;;;1.50;1.13;;;13.80;82.20;15.40;99676.00;;;;5068325;28;20200;-48
2023/10/22 06:30:23;;;;;;;1.60;0.93;;;13.80;81.60;15.40;99683.00;;;;5069124;28;20272;-48
2023/10/22 06:32:51;;;;;;;1.90;0.90;;;13.80;80.80;15.40;99681.00;;;;5070375;28;20197;-48
2023/10/22 06:35:16;;;;;;;1.40;1.30;;;13.90;81.10;15.40;99678.00;;;;5066799;28;20205;-48
2023/10/22 06:37:42;;;;;;;1.67;1.00;;;14.20;79.90;15.50;99692.00;;;;5067748;28;20196;-48
2023/10/22 06:40:08;;;;;;;1.20;1.10;;;14.10;80.70;15.50;99699.00;;;;5068012;28;20192;-49
2023/10/22 06:42:34;;;;;;;1.77;1.13;;;14.10;79.90;15.40;99693.00;;;;5067952;28;20678;-48
2023/10/22 06:45:00;;;;;;;1.33;0.90;;;13.90;80.30;15.40;99711.00;;;;5068055;28;20196;-48
2023/10/22 06:47:26;;;;;;;1.20;1.00;;;13.90;80.50;15.40;99700.00;;;;5067746;28;20213;-48
2023/10/22 06:49:52;;;;;;;1.60;1.27;;;13.90;80.50;15.40;99706.00;;;;5067895;28;20178;-48
2023/10/22 06:52:19;;;;;;;1.10;0.97;;;14.10;79.90;15.40;99711.00;;;;5068380;28;20248;-48
2023/10/22 06:54:45;;;;;;;1.60;1.00;;;13.80;79.40;15.40;99705.00;;;;5068080;28;20679;-47
2023/10/22 06:57:11;;;;;;;1.33;1.03;;;14.00;80.00;15.40;99657.00;;;;5068012;28;20178;-48
2023/10/22 06:59:37;;;;;;;1.17;0.80;;;14.00;80.00;15.40;99702.00;;;;5067789;28;20235;-47
2023/10/22 07:02:03;;;;;;;1.07;1.07;;;14.00;80.10;15.40;99713.00;;;;5067787;28;20205;-48
2023/10/22 07:04:28;;;;;;;1.43;1.00;;;14.00;80.40;15.40;99716.00;;;;5066482;28;20829;-47
2023/10/22 07:06:54;;;;;;;1.33;1.03;;;14.10;80.00;15.40;99714.00;;;;5067590;28;20181;-48
2023/10/22 07:09:20;;;;;;;2.20;1.00;;;14.10;80.10;15.40;99719.00;;;;5069083;28;20178;-48
2023/10/22 07:11:46;;;;;;;1.60;1.20;;;14.30;79.80;15.50;99729.00;;;;5064015;28;20198;-47
2023/10/22 07:14:12;;;;;;;1.50;1.37;;;14.40;79.70;15.50;99723.00;;;;5053544;28;20212;-48
2023/10/22 07:16:38;;;;;;;1.20;1.10;;;14.40;79.30;15.60;99727.00;;;;5068113;28;20227;-47
2023/10/22 07:19:04;;;;;;;1.30;1.20;;;14.50;78.70;15.60;99719.00;;;;5068643;28;20593;-47
2023/10/22 07:21:29;;;;;;;1.53;1.30;;;14.50;78.80;15.70;99724.00;;;;5053500;28;20213;-47
2023/10/22 07:23:55;;;;;;;1.03;0.90;;;14.50;79.00;15.70;99725.00;;;;5063198;28;20231;-47
2023/10/22 07:26:21;;;;;;;1.90;1.40;;;14.30;79.40;15.70;99719.00;;;;5070075;28;20334;-47
2023/10/22 07:28:49;;;;;;;1.63;1.40;;;14.40;79.60;15.70;99728.00;;;;5071153;28;20181;-47
2023/10/22 07:31:17;;;;;;;1.03;1.00;;;14.30;79.70;15.70;99744.00;;;;5069060;28;20208;-47
2023/10/22 07:33:43;;;;;;;1.30;1.00;;;14.50;79.20;15.70;99747.00;;;;5057967;28;20214;-55
2023/10/22 07:36:08;;;;;;;1.50;1.40;;;14.60;79.40;15.70;99758.00;;;;5068718;28;20681;-48
2023/10/22 07:38:34;;;;;;;2.27;1.40;;;14.20;80.10;15.70;99756.00;;;;5073604;28;20666;-48
2023/10/22 07:41:00;;;;;;;1.70;1.50;;;14.20;80.90;15.70;99751.00;;;;5070873;28;20692;-47
2023/10/22 07:43:27;;;;;;;2.10;1.60;;;14.30;80.70;15.70;99762.00;;;;5069793;28;20290;-47
2023/10/22 07:45:57;;;;;;;1.33;1.23;;;14.50;80.50;15.70;99765.00;;;;5069539;28;20196;-47
2023/10/22 07:48:23;;;;;;;2.57;1.53;;;14.60;80.10;15.70;99780.00;;;;5052355;28;20182;-47
2023/10/22 07:50:49;;;;;;;1.47;1.27;;;14.30;80.70;15.70;99773.00;;;;5067881;28;20176;-47
2023/10/22 07:53:16;;;;;;;1.77;1.40;;;14.20;81.80;15.70;99790.00;;;;5070941;28;20190;-48
2023/10/22 07:55:42;;;;;;;2.13;1.70;;;14.40;81.70;15.60;99785.00;;;;5071127;28;20284;-48
2023/10/22 07:58:08;;;;;;;2.17;1.80;;;14.20;82.50;15.60;99792.00;;;;5070597;28;20699;-49
2023/10/22 08:00:34;;;;;;;1.53;1.40;;;14.00;83.30;15.60;99790.00;;;;5070490;28;20249;-47
2023/10/22 08:02:59;;;;;;;1.37;1.23;;;14.30;82.30;15.60;99792.00;;;;5068835;28;20197;-48
2023/10/22 08:05:25;;;;;;;1.60;1.10;;;14.40;81.50;15.70;99796.00;;;;5070722;28;20189;-49
2023/10/22 08:07:51;;;;;;;1.27;1.13;;;14.60;80.40;15.80;99792.00;;;;5053440;28;20193;-48
2023/10/22 08:10:17;;;;;;;1.00;1.00;;;14.90;79.40;15.90;99801.00;;;;5051306;28;20181;-48
2023/10/22 08:12:42;;;;;;;1.20;1.10;;;15.00;78.40;16.00;99799.00;;;;5064215;28;20201;-48
2023/10/22 08:15:09;;;;;;;2.67;1.40;;;15.10;77.70;16.10;99809.00;;;;5056994;28;20205;-51
2023/10/22 08:17:34;;;;;;;1.53;1.30;;;15.30;77.50;16.20;99790.00;;;;5071772;28;20185;-48
2023/10/22 08:20:00;;;;;;;1.40;1.30;;;15.40;76.70;16.30;99807.00;;;;5070937;28;20177;-49
2023/10/22 08:22:26;;;;;;;2.10;1.30;;;15.60;76.20;16.50;99811.00;;;;5070619;28;20200;-48
2023/10/22 08:24:52;;;;;;;2.03;1.40;;;15.70;75.80;16.60;99826.00;;;;5070185;28;20182;-49
2023/10/22 08:27:17;;;;;;;3.90;1.50;;;15.90;75.60;16.70;99820.00;;;;5065894;28;20178;-48
2023/10/22 08:29:43;;;;;;;1.50;1.37;;;16.10;75.50;16.80;99837.00;;;;5070148;28;20181;-48
2023/10/22 08:32:09;;;;;;;1.40;1.20;;;16.20;75.00;16.90;99822.00;;;;5069792;28;20205;-48
2023/10/22 08:34:34;;;;;;;1.17;1.07;;;16.30;74.50;17.00;99835.00;;;;5061144;28;20192;-48
2023/10/22 08:37:00;;;;;;;2.83;1.50;;;16.50;74.30;17.10;99839.00;;;;5069017;28;20201;-48
2023/10/22 08:39:26;;;;;;;1.50;1.00;;;16.60;74.00;17.20;99840.00;;;;5069483;28;20178;-49
2023/10/22 08:41:56;;;;;;;2.40;1.20;;;16.80;73.90;17.30;99841.00;;;;5065936;28;20283;-48
2023/10/22 08:44:22;;;;;;;1.53;1.27;;;16.90;73.40;17.40;99851.00;;;;5051503;28;20190;-48
2023/10/22 08:46:48;;;;;;;1.63;1.30;;;17.10;73.20;17.50;99863.00;;;;5065050;28;20197;-49
2023/10/22 08:49:13;;;;;;;2.20;1.10;;;17.20;72.90;17.60;99859.00;;;;5069047;28;20838;-48
2023/10/22 08:51:39;;;;;;;3.73;1.40;;;17.40;72.80;17.80;99862.00;;;;5046638;28;20193;-48
2023/10/22 08:54:05;;;;;;;4.30;1.60;;;17.50;72.80;17.90;99862.00;;;;5067401;28;20204;-49
2023/10/22 08:56:32;;;;;;;4.20;1.53;;;17.60;72.70;18.00;99859.00;;;;5054760;28;20212;-48
2023/10/22 08:59:01;;;;;;;3.20;1.10;;;17.60;72.60;18.00;99859.00;;;;5065726;28;20189;-48
2023/10/22 09:01:26;;;;;;;2.33;0.97;;;17.70;72.70;18.10;99864.00;;;;5067500;28;20779;-49
2023/10/22 09:03:53;;;;;;;2.57;1.20;;;17.70;72.80;18.20;99859.00;;;;5067804;28;20260;-48
2023/10/22 09:06:19;;;;;;;1.53;1.00;;;17.70;73.00;18.20;99865.00;;;;5068683;28;20189;-49
2023/10/22 09:08:45;;;;;;;3.97;1.37;;;17.80;73.40;18.30;99875.00;;;;5068482;28;20257;-49
2023/10/22 09:11:15;;;;;;;2.10;1.27;;;17.70;73.60;18.30;99865.00;;;;5068746;28;20758;-49
2023/10/22 09:13:42;;;;;;;3.80;1.40;;;17.80;74.10;18.40;99884.00;;;;5068587;28;20179;-48
2023/10/22 09:16:08;;;;;;;2.87;1.10;;;17.80;74.50;18.40;99879.00;;;;5068173;28;20652;-48
2023/10/22 09:18:44;;;;;;;2.30;1.30;;;17.80;74.70;18.40;99895.00;;;;5068413;28;20660;-48
2023/10/22 09:21:10;;;;;;;2.73;1.60;;;17.80;74.90;18.40;99886.00;;;;5066808;28;20569;-48
2023/10/22 09:23:36;;;;;;;2.97;1.40;;;17.90;75.10;18.50;99890.00;;;;5068656;28;20178;-49
2023/10/22 09:26:02;;;;;;;1.57;1.20;;;17.90;75.30;18.50;99894.00;;;;5053456;28;20212;-48
2023/10/22 09:28:28;;;;;;;1.20;1.10;;;17.90;75.50;18.50;99882.00;;;;5068793;28;20643;-49
2023/10/22 09:31:02;;;;;;;3.43;1.43;;;17.90;75.80;18.50;99887.00;;;;5049280;28;20174;-49
2023/10/22 09:33:38;;;;;;;3.17;1.60;;;17.90;76.00;18.50;99898.00;;;;5066809;28;20265;-49
2023/10/22 09:36:10;;;;;;;2.17;1.43;;;17.90;76.10;18.50;99906.00;;;;5052645;28;20180;-50
2023/10/22 09:38:49;;;;;;;2.10;1.40;;;17.90;76.20;18.60;99904.00;;;;5067938;28;20699;-50
2023/10/22 09:41:28;;;;;;;4.53;1.60;;;17.90;76.20;18.60;99907.00;;;;5069634;28;20166;-50
2023/10/22 09:43:58;;;;;;;2.50;1.60;;;18.00;76.40;18.60;99913.00;;;;5068852;28;20181;-48
2023/10/22 09:46:32;;;;;;;3.97;1.50;;;17.90;76.10;18.60;99903.00;;;;5068995;28;20193;-49
2023/10/22 09:48:59;;;;;;;3.43;1.53;;;17.90;76.00;18.60;99898.00;;;;5068721;28;20185;-49
2023/10/22 09:51:33;;;;;;;2.10;1.20;;;17.90;76.00;18.60;99904.00;;;;5068996;28;20276;-48
2023/10/22 09:54:05;;;;;;;2.17;1.57;;;17.90;75.80;18.60;99906.00;;;;5067413;28;20201;-49
2023/10/22 09:56:32;;;;;;;2.27;1.63;;;17.90;75.70;18.60;99914.00;;;;5068102;28;20184;-49
2023/10/22 09:59:07;;;;;;;3.00;1.90;;;17.90;75.70;18.70;99911.00;;;;5059602;28;20200;-49
2023/10/22 10:01:36;;;;;;;2.27;1.60;;;17.90;75.60;18.60;99926.00;;;;5066849;28;20245;-49
2023/10/22 10:04:03;;;;;;;7.33;1.80;;;17.90;75.70;18.60;99921.00;;;;5067085;28;20272;-49
2023/10/22 10:06:30;;;;;;;5.33;1.80;;;17.90;76.00;18.70;99923.00;;;;5070614;28;20663;-49
2023/10/22 10:08:56;;;;;;;6.00;1.90;;;18.00;76.00;18.70;99928.00;;;;5067502;28;20188;-49
2023/10/22 10:11:21;;;;;;;6.23;1.80;;;17.90;75.90;18.70;99924.00;;;;5066657;28;20280;-49
2023/10/22 10:13:47;;;;;;;2.93;1.50;;;17.90;75.80;18.70;99937.00;;;;5067065;28;20209;-49
2023/10/22 10:16:13;;;;;;;4.60;1.70;;;17.90;75.70;18.70;99931.00;;;;5067932;28;20173;-49
2023/10/22 10:19:04;;;;;;;3.97;1.50;;;17.90;75.80;18.70;99935.00;;;;5067907;28;20176;-49
2023/10/22 10:21:38;;;;;;;2.80;1.60;;;17.90;75.60;18.70;99941.00;;;;5064068;28;20201;-48
2023/10/22 10:24:28;;;;;;;4.03;1.57;;;17.90;76.00;18.70;99947.00;;;;5052100;28;20180;-48
2023/10/22 10:26:57;;;;;;;5.07;1.90;;;17.90;76.30;18.60;99952.00;;;;5067275;28;20193;-48
2023/10/22 10:29:28;;;;;;;3.07;1.43;;;17.90;76.80;18.60;99948.00;;;;5052124;28;20184;-48
2023/10/22 10:31:55;;;;;;;5.07;1.70;;;17.90;76.50;18.60;99946.00;;;;5051388;28;20566;-48
2023/10/22 10:34:39;;;;;;;4.73;1.63;;;17.90;76.20;18.60;99960.00;;;;5048591;28;20209;-49
2023/10/22 10:37:24;;;;;;;3.63;1.50;;;17.90;76.10;18.70;99968.00;;;;5051440;28;20185;-49
2023/10/22 10:39:52;;;;;;;4.23;1.60;;;17.90;76.00;18.60;99955.00;;;;5067765;28;20235;-49
2023/10/22 10:42:30;;;;;;;3.47;1.23;;;17.90;76.00;18.70;99964.00;;;;5067911;28;20233;-49
2023/10/22 10:44:58;;;;;;;4.90;1.67;;;17.80;75.90;18.60;99958.00;;;;5059546;28;20664;-48
2023/10/22 10:47:33;;;;;;;2.53;1.87;;;17.80;75.80;18.60;99958.00;;;;5058895;28;20648;-49
2023/10/22 10:50:12;;;;;;;7.03;2.10;;;17.90;75.90;18.60;99960.00;;;;5052222;28;20582;-48
2023/10/22 10:52:37;;;;;;;6.70;1.70;;;17.90;75.90;18.60;99965.00;;;;5064685;28;20284;-48
2023/10/22 10:55:18;;;;;;;4.13;1.90;;;17.90;76.40;18.60;99968.00;;;;5067452;28;20628;-48